createdAt,value
2022-09-05T00:01:28.203Z,25.79
2022-09-05T00:04:24.452Z,25.71
2022-09-05T00:07:03.565Z,25.70
2022-09-05T00:09:56.530Z,25.72
2022-09-05T00:12:26.725Z,25.67
2022-09-05T00:15:16.766Z,25.69
2022-09-05T00:21:48.252Z,25.69
2022-09-05T00:24:28.686Z,25.67
2022-09-05T00:24:37.912Z,25.66
2022-09-05T00:27:03.517Z,25.62
2022-09-05T00:31:04.006Z,25.62
2022-09-05T00:33:17.258Z,25.62
2022-09-05T00:36:14.401Z,25.56
2022-09-05T00:38:52.511Z,25.46
2022-09-05T00:41:20.586Z,25.44
2022-09-05T00:43:58.198Z,25.44
2022-09-05T00:46:31.980Z,25.35
2022-09-05T00:49:20.773Z,25.35
2022-09-05T00:52:00.411Z,25.34
2022-09-05T00:54:53.561Z,25.30
2022-09-05T00:57:48.038Z,25.32
2022-09-05T01:00:20.039Z,25.28
2022-09-05T01:03:12.520Z,25.30
2022-09-05T01:05:59.057Z,25.30
2022-09-05T01:08:54.281Z,25.31
2022-09-05T01:11:40.312Z,25.30
2022-09-05T01:14:29.361Z,25.29
2022-09-05T01:17:18.615Z,25.30
2022-09-05T01:20:19.210Z,25.28
2022-09-05T01:23:09.854Z,25.28
2022-09-05T01:26:11.707Z,25.27
2022-09-05T01:29:18.213Z,25.19
2022-09-05T01:31:50.783Z,25.14
2022-09-05T01:34:31.419Z,25.16
2022-09-05T01:37:32.683Z,25.12
2022-09-05T01:40:15.652Z,25.10
2022-09-05T01:43:03.722Z,25.12
2022-09-05T01:45:48.805Z,25.14
2022-09-05T01:48:36.792Z,25.10
2022-09-05T01:51:29.505Z,25.07
2022-09-05T01:54:24.379Z,25.04
2022-09-05T01:57:04.894Z,24.98
2022-09-05T01:59:43.172Z,24.95
2022-09-05T02:02:39.752Z,24.91
2022-09-05T02:05:48.662Z,24.84
2022-09-05T02:08:36.141Z,24.79
2022-09-05T02:11:07.300Z,24.71
2022-09-05T02:13:55.899Z,24.77
2022-09-05T02:16:33.476Z,24.78
2022-09-05T02:19:13.363Z,24.79
2022-09-05T02:21:56.310Z,24.78
2022-09-05T02:24:35.142Z,24.80
2022-09-05T02:28:04.208Z,24.85
2022-09-05T02:30:24.471Z,24.78
2022-09-05T02:33:03.583Z,24.76
2022-09-05T02:35:40.309Z,24.78
2022-09-05T02:42:43.503Z,24.77
2022-09-05T02:45:07.890Z,24.78
2022-09-05T02:45:14.075Z,24.72
2022-09-05T02:46:59.296Z,24.72
2022-09-05T02:51:40.355Z,24.73
2022-09-05T02:57:29.017Z,24.70
2022-09-05T02:58:06.512Z,24.70
2022-09-05T02:59:05.730Z,24.70
2022-09-05T03:01:41.967Z,24.70
2022-09-05T03:04:20.390Z,24.70
2022-09-05T03:07:06.859Z,24.73
2022-09-05T03:09:48.138Z,24.68
2022-09-05T03:12:56.788Z,24.69
2022-09-05T03:15:50.421Z,24.66
2022-09-05T03:18:46.895Z,24.61
2022-09-05T03:21:55.968Z,24.58
2022-09-05T03:25:07.899Z,24.51
2022-09-05T03:28:17.704Z,24.50
2022-09-05T03:31:05.976Z,24.45
2022-09-05T03:33:54.197Z,24.40
2022-09-05T03:36:58.839Z,24.30
2022-09-05T03:40:16.159Z,24.37
2022-09-05T03:43:06.309Z,24.33
2022-09-05T03:46:01.307Z,24.29
2022-09-05T03:49:12.939Z,24.24
2022-09-05T03:57:11.444Z,24.24
2022-09-05T03:57:16.515Z,24.21
2022-09-05T03:58:57.457Z,24.21
2022-09-05T04:03:10.584Z,24.16
2022-09-05T04:08:10.345Z,24.13
2022-09-05T04:08:16.281Z,24.17
2022-09-05T04:10:35.386Z,24.41
2022-09-05T04:13:10.999Z,24.55
2022-09-05T04:15:45.861Z,24.69
2022-09-05T04:18:32.875Z,24.85
2022-09-05T04:21:08.740Z,24.88
2022-09-05T04:23:48.553Z,24.98
2022-09-05T04:26:47.088Z,25.08
2022-09-05T04:29:24.120Z,25.06
2022-09-05T04:32:19.015Z,25.10
2022-09-05T04:35:24.091Z,25.14
2022-09-05T04:37:59.441Z,25.08
2022-09-05T04:40:38.012Z,25.14
2022-09-05T04:43:09.397Z,25.18
2022-09-05T04:45:42.769Z,25.18
2022-09-05T04:48:14.995Z,25.17
2022-09-05T04:51:03.033Z,25.22
2022-09-05T04:53:42.178Z,25.18
2022-09-05T04:56:18.525Z,25.20
2022-09-05T04:59:32.715Z,25.23
2022-09-05T05:06:03.933Z,25.22
2022-09-05T05:06:16.672Z,25.23
2022-09-05T05:07:34.276Z,25.22
2022-09-05T05:12:48.194Z,25.21
2022-09-05T05:18:01.368Z,25.23
2022-09-05T05:18:10.725Z,25.20
2022-09-05T05:19:02.995Z,25.20
2022-09-05T05:21:34.620Z,25.21
2022-09-05T05:24:14.631Z,25.12
2022-09-05T05:26:57.049Z,24.93
2022-09-05T05:29:36.605Z,24.76
2022-09-05T05:32:09.080Z,24.62
2022-09-05T05:34:48.787Z,24.47
2022-09-05T05:37:26.231Z,24.31
2022-09-05T05:40:09.570Z,24.34
2022-09-05T05:42:43.508Z,24.37
2022-09-05T05:45:20.408Z,24.50
2022-09-05T05:47:53.905Z,24.56
2022-09-05T05:50:36.955Z,24.65
2022-09-05T05:53:30.485Z,24.74
2022-09-05T05:56:36.727Z,24.80
2022-09-05T05:59:24.768Z,24.81
2022-09-05T06:02:33.983Z,24.84
2022-09-05T06:05:51.878Z,24.89
2022-09-05T06:13:57.126Z,24.93
2022-09-05T06:14:57.619Z,24.92
2022-09-05T06:15:39.910Z,24.95
2022-09-05T06:18:45.549Z,24.93
2022-09-05T06:22:09.196Z,24.93
2022-09-05T06:25:20.134Z,24.93
2022-09-05T06:28:19.753Z,24.92
2022-09-05T06:31:29.331Z,24.81
2022-09-05T06:33:58.568Z,24.77
2022-09-05T06:36:49.208Z,24.82
2022-09-05T06:39:29.284Z,24.77
2022-09-05T06:42:28.448Z,24.81
2022-09-05T06:45:27.773Z,24.78
2022-09-05T06:48:10.789Z,24.75
2022-09-05T06:51:09.036Z,24.73
2022-09-05T06:53:53.514Z,24.74
2022-09-05T06:56:44.014Z,24.75
2022-09-05T06:59:49.536Z,24.72
2022-09-05T07:02:59.616Z,24.68
2022-09-05T07:05:40.053Z,24.69
2022-09-05T07:08:36.882Z,24.67
2022-09-05T07:11:16.728Z,24.58
2022-09-05T07:13:58.048Z,24.54
2022-09-05T07:16:47.693Z,24.50
2022-09-05T07:19:31.586Z,24.47
2022-09-05T07:22:48.001Z,24.51
2022-09-05T07:25:18.010Z,24.50
2022-09-05T07:28:26.287Z,24.47
2022-09-05T07:30:50.334Z,24.51
2022-09-05T07:33:21.776Z,24.56
2022-09-05T07:35:53.921Z,24.45
2022-09-05T07:38:45.555Z,24.07
2022-09-05T07:41:23.697Z,24.21
2022-09-05T07:43:58.108Z,24.26
2022-09-05T07:46:29.808Z,24.26
2022-09-05T07:49:03.923Z,24.22
2022-09-05T07:54:39.412Z,24.28
2022-09-05T07:56:59.807Z,24.27
2022-09-05T07:57:30.115Z,24.40
2022-09-05T08:00:27.219Z,24.49
2022-09-05T08:03:34.191Z,24.46
2022-09-05T08:06:07.709Z,24.48
2022-09-05T08:09:21.721Z,24.55
2022-09-05T08:11:48.335Z,24.59
2022-09-05T08:14:45.343Z,24.69
2022-09-05T08:17:29.924Z,24.66
2022-09-05T08:20:16.801Z,24.32
2022-09-05T08:22:57.045Z,24.42
2022-09-05T08:25:36.398Z,24.28
2022-09-05T08:28:39.042Z,24.40
2022-09-05T08:31:15.358Z,24.41
2022-09-05T08:33:46.410Z,24.50
2022-09-05T08:36:27.091Z,24.62
2022-09-05T08:38:57.443Z,24.67
2022-09-05T08:41:49.959Z,24.78
2022-09-05T08:46:45.760Z,24.84
2022-09-05T08:47:45.060Z,24.87
2022-09-05T08:50:38.523Z,24.96
2022-09-05T08:53:45.426Z,24.99
2022-09-05T08:56:21.371Z,25.03
2022-09-05T08:59:27.547Z,25.05
2022-09-05T09:02:44.623Z,25.08
2022-09-05T09:05:14.162Z,25.20
2022-09-05T09:07:51.194Z,25.19
2022-09-05T09:10:38.668Z,25.24
2022-09-05T09:13:23.373Z,25.31
2022-09-05T09:16:07.195Z,25.38
2022-09-05T09:19:02.022Z,25.47
2022-09-05T09:21:35.362Z,25.65
2022-09-05T09:24:16.793Z,25.56
2022-09-05T09:26:57.377Z,25.67
2022-09-05T09:29:28.155Z,25.68
2022-09-05T09:32:09.659Z,25.76
2022-09-05T09:34:56.344Z,25.87
2022-09-05T09:38:08.795Z,25.91
2022-09-05T09:41:14.941Z,25.87
2022-09-05T09:44:28.177Z,25.96
2022-09-05T09:46:59.915Z,25.90
2022-09-05T09:49:45.332Z,25.97
2022-09-05T09:52:44.982Z,26.06
2022-09-05T09:55:47.960Z,26.09
2022-09-05T09:58:47.581Z,26.13
2022-09-05T10:01:36.145Z,26.16
2022-09-05T10:08:51.128Z,26.18
2022-09-05T10:10:54.667Z,26.26
2022-09-05T10:11:37.688Z,26.32
2022-09-05T10:14:47.768Z,26.37
2022-09-05T10:17:55.669Z,26.40
2022-09-05T10:21:16.468Z,26.42
2022-09-05T10:24:14.899Z,26.49
2022-09-05T10:27:15.291Z,26.57
2022-09-05T10:30:08.843Z,26.64
2022-09-05T10:35:05.866Z,26.71
2022-09-05T10:35:38.687Z,26.73
2022-09-05T10:38:13.277Z,26.78
2022-09-05T10:41:20.975Z,26.82
2022-09-05T10:43:47.422Z,26.87
2022-09-05T10:46:49.427Z,26.93
2022-09-05T10:49:26.917Z,26.96
2022-09-05T10:52:18.954Z,27.03
2022-09-05T10:55:14.304Z,27.11
2022-09-05T10:58:01.786Z,27.19
2022-09-05T11:02:21.332Z,27.21
2022-09-05T11:03:50.557Z,27.25
2022-09-05T11:06:25.173Z,27.28
2022-09-05T11:09:04.634Z,27.38
2022-09-05T11:11:47.241Z,27.40
2022-09-05T11:14:37.015Z,27.47
2022-09-05T11:17:19.471Z,27.53
2022-09-05T11:20:02.130Z,27.59
2022-09-05T11:22:40.362Z,27.64
2022-09-05T11:25:20.547Z,27.74
2022-09-05T11:28:18.365Z,27.83
2022-09-05T11:30:57.389Z,27.81
2022-09-05T11:39:35.150Z,27.86
2022-09-05T11:39:57.097Z,27.95
2022-09-05T11:40:50.600Z,28.02
2022-09-05T11:44:24.841Z,28.15
2022-09-05T11:47:29.675Z,28.29
2022-09-05T11:50:38.748Z,28.36
2022-09-05T11:53:39.612Z,28.39
2022-09-05T11:56:41.880Z,28.51
2022-09-05T12:00:08.216Z,28.63
2022-09-05T12:03:59.011Z,28.73
2022-09-05T12:06:59.406Z,28.71
2022-09-05T12:09:50.192Z,28.77
2022-09-05T12:12:41.300Z,28.87
2022-09-05T12:15:27.738Z,28.98
2022-09-05T12:18:21.587Z,29.15
2022-09-05T12:21:18.361Z,29.10
2022-09-05T12:24:28.567Z,29.20
2022-09-05T12:27:38.711Z,29.34
2022-09-05T12:29:52.210Z,29.47
2022-09-05T12:33:58.056Z,29.59
2022-09-05T12:36:08.456Z,29.68
2022-09-05T12:40:59.327Z,29.92
2022-09-05T12:42:14.678Z,29.93
2022-09-05T12:44:50.236Z,29.89
2022-09-05T12:47:25.246Z,29.84
2022-09-05T12:50:14.995Z,29.85
2022-09-05T12:52:47.651Z,30.00
2022-09-05T12:55:26.502Z,30.01
2022-09-05T13:03:02.254Z,30.11
2022-09-05T13:03:02.514Z,30.09
2022-09-05T13:04:16.461Z,30.18
2022-09-05T13:06:46.331Z,30.24
2022-09-05T13:09:29.428Z,30.34
2022-09-05T13:15:02.407Z,30.36
2022-09-05T13:15:23.567Z,30.55
2022-09-05T13:18:08.257Z,30.66
2022-09-05T13:20:45.222Z,30.78
2022-09-05T13:23:22.166Z,30.74
2022-09-05T13:25:59.516Z,30.80
2022-09-05T13:28:43.168Z,30.76
2022-09-05T13:37:54.274Z,30.78
2022-09-05T13:38:16.165Z,30.96
2022-09-05T13:38:17.484Z,30.87
2022-09-05T13:40:00.972Z,30.98
2022-09-05T13:42:37.197Z,31.10
2022-09-05T13:45:19.126Z,31.19
2022-09-05T13:48:27.848Z,31.33
2022-09-05T13:51:06.240Z,31.38
2022-09-05T13:53:46.408Z,31.41
2022-09-05T13:56:23.550Z,31.55
2022-09-05T13:59:02.093Z,31.39
2022-09-05T14:01:57.107Z,31.37
2022-09-05T14:05:13.621Z,31.17
2022-09-05T14:08:21.994Z,30.98
2022-09-05T14:11:28.236Z,31.00
2022-09-05T14:14:11.105Z,30.99
2022-09-05T14:16:53.885Z,31.01
2022-09-05T14:19:43.679Z,31.25
2022-09-05T14:22:33.066Z,31.33
2022-09-05T14:25:03.602Z,31.53
2022-09-05T14:27:34.174Z,31.65
2022-09-05T14:31:08.187Z,31.83
2022-09-05T14:37:39.269Z,31.92
2022-09-05T14:37:43.661Z,31.92
2022-09-05T14:39:23.435Z,31.83
2022-09-05T14:42:24.632Z,31.79
2022-09-05T14:45:30.879Z,31.81
2022-09-05T14:48:20.744Z,31.94
2022-09-05T14:51:14.780Z,32.03
2022-09-05T14:54:13.211Z,32.10
2022-09-05T15:02:19.340Z,32.23
2022-09-05T15:02:46.047Z,32.34
2022-09-05T15:03:05.029Z,32.43
2022-09-05T15:05:42.021Z,32.48
2022-09-05T15:08:50.066Z,32.28
2022-09-05T15:12:23.842Z,32.22
2022-09-05T15:14:04.581Z,32.07
2022-09-05T15:16:38.857Z,31.94
2022-09-05T15:19:11.917Z,31.81
2022-09-05T15:21:42.758Z,31.78
2022-09-05T15:24:19.309Z,31.89
2022-09-05T15:26:53.683Z,31.94
2022-09-05T15:29:26.376Z,31.94
2022-09-05T15:32:16.201Z,31.84
2022-09-05T15:34:47.446Z,31.67
2022-09-05T15:37:30.370Z,31.65
2022-09-05T15:40:07.767Z,31.58
2022-09-05T15:42:55.982Z,31.48
2022-09-05T15:45:29.923Z,31.41
2022-09-05T15:48:14.700Z,31.35
2022-09-05T15:51:02.585Z,31.28
2022-09-05T15:53:35.159Z,31.35
2022-09-05T15:56:18.905Z,31.45
2022-09-05T15:58:54.882Z,31.47
2022-09-05T16:01:58.691Z,31.51
2022-09-05T16:10:26.878Z,31.44
2022-09-05T16:10:36.898Z,31.38
2022-09-05T16:10:49.146Z,31.24
2022-09-05T16:13:15.485Z,31.13
2022-09-05T16:23:20.280Z,31.02
2022-09-05T16:23:21.146Z,31.06
2022-09-05T16:23:30.680Z,30.89
2022-09-05T16:24:59.094Z,30.81
2022-09-05T16:27:45.730Z,30.74
2022-09-05T16:30:22.420Z,30.67
2022-09-05T16:32:57.350Z,30.58
2022-09-05T16:35:28.565Z,30.48
2022-09-05T16:38:09.349Z,30.45
2022-09-05T16:40:44.464Z,30.36
2022-09-05T16:43:18.243Z,30.24
2022-09-05T16:45:56.234Z,30.20
2022-09-05T16:48:37.423Z,30.17
2022-09-05T16:51:28.751Z,30.18
2022-09-05T16:54:11.326Z,30.11
2022-09-05T16:56:46.708Z,30.08
2022-09-05T16:59:23.275Z,30.05
2022-09-05T17:02:10.730Z,30.01
2022-09-05T17:05:05.102Z,29.93
2022-09-05T17:07:49.640Z,29.87
2022-09-05T17:10:20.878Z,29.96
2022-09-05T17:12:55.665Z,29.83
2022-09-05T17:15:29.764Z,29.81
2022-09-05T17:18:22.046Z,29.79
2022-09-05T17:20:58.628Z,29.76
2022-09-05T17:29:18.783Z,29.71
2022-09-05T17:29:28.741Z,29.73
2022-09-05T17:32:51.952Z,29.63
2022-09-05T17:35:43.103Z,29.63
2022-09-05T17:38:39.584Z,29.64
2022-09-05T17:41:36.847Z,29.59
2022-09-05T17:44:18.225Z,29.53
2022-09-05T17:47:08.882Z,29.54
2022-09-05T17:49:46.740Z,29.48
2022-09-05T17:52:25.783Z,29.51
2022-09-05T17:54:56.717Z,29.47
2022-09-05T17:57:37.727Z,29.48
2022-09-05T18:00:49.073Z,29.47
2022-09-05T18:04:08.572Z,29.45
2022-09-05T18:06:59.289Z,29.36
2022-09-05T18:13:30.990Z,29.29
2022-09-05T18:16:13.328Z,29.31
2022-09-05T18:19:28.843Z,29.23
2022-09-05T18:21:53.727Z,29.25
2022-09-05T18:24:33.386Z,29.22
2022-09-05T18:28:03.466Z,29.18
2022-09-05T18:30:29.485Z,29.20
2022-09-05T18:33:53.523Z,29.19
2022-09-05T18:36:35.657Z,29.18
2022-09-05T18:39:38.220Z,29.18
2022-09-05T18:42:25.971Z,29.14
2022-09-05T18:45:15.428Z,29.13
2022-09-05T18:47:57.163Z,29.10
2022-09-05T18:50:32.760Z,29.07
2022-09-05T18:53:09.033Z,29.05
2022-09-05T18:56:14.111Z,29.05
2022-09-05T18:58:54.262Z,29.03
2022-09-05T19:01:29.588Z,28.98
2022-09-05T19:04:04.955Z,28.99
2022-09-05T19:06:45.298Z,28.98
2022-09-05T19:09:26.845Z,28.94
2022-09-05T19:12:31.833Z,28.88
2022-09-05T19:15:00.479Z,28.82
2022-09-05T19:17:47.068Z,28.80
2022-09-05T19:20:33.135Z,28.78
2022-09-05T19:23:11.767Z,28.77
2022-09-05T19:25:44.573Z,28.75
2022-09-05T19:36:46.423Z,28.66
2022-09-05T19:36:51.075Z,28.69
2022-09-05T19:37:12.706Z,28.60
2022-09-05T19:37:30.511Z,28.53
2022-09-05T19:46:00.758Z,28.47
2022-09-05T19:47:37.064Z,28.48
2022-09-05T19:47:50.010Z,28.67
2022-09-05T19:48:34.968Z,28.47
2022-09-05T19:51:18.687Z,28.41
2022-09-05T19:53:55.168Z,28.34
2022-09-05T19:56:36.853Z,28.35
2022-09-05T19:59:17.867Z,28.37
2022-09-05T20:01:48.573Z,28.23
2022-09-05T20:04:20.512Z,28.21
2022-09-05T20:06:53.226Z,28.17
2022-09-05T20:09:24.004Z,28.19
2022-09-05T20:11:54.534Z,28.15
2022-09-05T20:14:27.824Z,28.17
2022-09-05T20:17:01.769Z,28.09
2022-09-05T20:19:36.601Z,28.08
2022-09-05T20:22:47.612Z,28.09
2022-09-05T20:25:19.585Z,28.07
2022-09-05T20:28:09.959Z,28.11
2022-09-05T20:30:45.538Z,28.14
2022-09-05T20:33:22.123Z,28.08
2022-09-05T20:40:03.966Z,28.12
2022-09-05T20:43:22.289Z,28.00
2022-09-05T20:43:24.421Z,28.10
2022-09-05T20:44:42.616Z,28.02
2022-09-05T20:50:51.335Z,27.93
2022-09-05T20:54:20.540Z,27.97
2022-09-05T20:54:22.769Z,28.00
2022-09-05T20:56:24.335Z,27.98
2022-09-05T20:58:57.204Z,27.91
2022-09-05T21:01:32.817Z,27.90
2022-09-05T21:04:07.894Z,27.92
2022-09-05T21:06:42.061Z,27.85
2022-09-05T21:09:25.471Z,27.82
2022-09-05T21:11:59.113Z,27.77
2022-09-05T21:14:30.211Z,27.93
2022-09-05T21:17:15.102Z,27.70
2022-09-05T21:19:54.159Z,27.72
2022-09-05T21:22:30.584Z,27.67
2022-09-05T21:25:43.600Z,27.73
2022-09-05T21:28:36.791Z,27.73
2022-09-05T21:31:15.737Z,27.65
2022-09-05T21:33:47.370Z,27.61
2022-09-05T21:36:20.535Z,27.58
2022-09-05T21:38:49.577Z,27.57
2022-09-05T21:41:19.644Z,27.59
2022-09-05T21:47:39.458Z,27.63
2022-09-05T21:47:41.217Z,27.57
2022-09-05T21:49:32.357Z,27.60
2022-09-05T21:52:06.586Z,27.54
2022-09-05T21:59:18.469Z,27.55
2022-09-05T21:59:27.449Z,27.52
2022-09-05T22:00:29.529Z,27.52
2022-09-05T22:03:00.982Z,27.49
2022-09-05T22:05:37.444Z,27.50
2022-09-05T22:08:07.187Z,27.51
2022-09-05T22:10:51.727Z,27.56
2022-09-05T22:13:23.843Z,27.61
2022-09-05T22:15:53.449Z,27.61
2022-09-05T22:18:25.089Z,27.65
2022-09-05T22:21:32.030Z,27.70
2022-09-05T22:23:50.068Z,27.75
2022-09-05T22:26:26.759Z,27.77
2022-09-05T22:28:59.298Z,27.76
2022-09-05T22:31:29.331Z,27.76
2022-09-05T22:34:02.497Z,27.75
2022-09-05T22:36:33.373Z,27.75
2022-09-05T22:39:05.334Z,27.75
2022-09-05T22:41:35.332Z,27.79
2022-09-05T22:44:07.628Z,27.76
2022-09-05T22:46:39.378Z,27.74
2022-09-05T22:49:10.231Z,27.89
2022-09-05T22:51:41.661Z,27.72
2022-09-05T22:54:17.513Z,27.64
2022-09-05T22:56:47.575Z,27.60
2022-09-05T22:59:19.264Z,27.57
2022-09-05T23:01:49.496Z,27.53
2022-09-05T23:04:21.996Z,27.45
2022-09-05T23:06:51.345Z,27.38
2022-09-05T23:09:20.826Z,27.38
2022-09-05T23:11:51.751Z,27.38
2022-09-05T23:14:21.380Z,27.39
2022-09-05T23:16:51.271Z,27.37
2022-09-05T23:19:20.771Z,27.41
2022-09-05T23:21:51.933Z,27.40
2022-09-05T23:24:21.459Z,27.36
2022-09-05T23:26:51.356Z,27.38
2022-09-05T23:29:22.612Z,27.35
2022-09-05T23:31:54.186Z,27.36
2022-09-05T23:34:26.302Z,27.33
2022-09-05T23:36:56.618Z,27.31
2022-09-05T23:39:28.814Z,27.28
2022-09-05T23:42:00.165Z,27.36
2022-09-05T23:44:31.706Z,27.32
2022-09-05T23:47:01.142Z,27.30
2022-09-05T23:49:32.089Z,27.30
2022-09-05T23:52:02.448Z,27.29
2022-09-05T23:54:34.683Z,27.29
2022-09-05T23:57:04.675Z,27.31
2022-09-05T23:59:36.382Z,27.29
